createdAt,value
2023-03-25T00:00:37.345Z,932.41
2023-03-25T00:01:38.276Z,932.42
2023-03-25T00:02:39.083Z,932.31
2023-03-25T00:03:39.741Z,932.4
2023-03-25T00:04:40.144Z,932.37
2023-03-25T00:05:41.048Z,932.41
2023-03-25T00:06:41.678Z,932.44
2023-03-25T00:07:42.354Z,932.46
2023-03-25T00:08:43.043Z,932.44
2023-03-25T00:09:43.591Z,932.44
2023-03-25T00:10:44.119Z,932.49
2023-03-25T00:11:44.643Z,932.47
2023-03-25T00:12:44.841Z,932.5
2023-03-25T00:13:45.325Z,932.44
2023-03-25T00:14:45.844Z,932.46
2023-03-25T00:15:46.546Z,932.44
2023-03-25T00:16:47.075Z,932.42
2023-03-25T00:17:47.209Z,932.37
2023-03-25T00:18:47.966Z,932.36
2023-03-25T00:19:48.951Z,932.4
2023-03-25T00:20:49.642Z,932.41
2023-03-25T00:21:50.334Z,932.43
2023-03-25T00:22:51.356Z,932.41
2023-03-25T00:23:52.269Z,932.4
2023-03-25T00:24:52.614Z,932.31
2023-03-25T00:25:53.113Z,932.4
2023-03-25T00:26:53.081Z,932.36
2023-03-25T00:27:53.763Z,932.42
2023-03-25T00:28:54.239Z,932.42
2023-03-25T00:29:54.364Z,932.41
2023-03-25T00:30:55.229Z,932.42
2023-03-25T00:31:55.226Z,932.39
2023-03-25T00:32:56.089Z,932.4
2023-03-25T00:33:56.903Z,932.44
2023-03-25T00:34:57.587Z,932.35
2023-03-25T00:35:58.191Z,932.38
2023-03-25T00:36:58.834Z,932.37
2023-03-25T00:37:59.735Z,932.35
2023-03-25T00:39:00.008Z,932.32
2023-03-25T00:40:00.969Z,932.4
2023-03-25T00:41:01.863Z,932.33
2023-03-25T00:42:02.816Z,932.35
2023-03-25T00:43:03.832Z,932.41
2023-03-25T00:44:04.335Z,932.43
2023-03-25T00:45:05.074Z,932.45
2023-03-25T00:46:06.061Z,932.45
2023-03-25T00:47:06.207Z,932.41
2023-03-25T00:48:07.307Z,932.46
2023-03-25T00:49:08.254Z,932.48
2023-03-25T00:50:08.545Z,932.43
2023-03-25T00:51:09.067Z,932.45
2023-03-25T00:52:09.797Z,932.47
2023-03-25T00:53:09.966Z,932.48
2023-03-25T00:54:10.264Z,932.43
2023-03-25T00:55:10.530Z,932.37
2023-03-25T00:56:11.023Z,932.38
2023-03-25T00:57:11.640Z,932.42
2023-03-25T00:58:12.568Z,932.48
2023-03-25T00:59:13.120Z,932.38
2023-03-25T01:00:13.677Z,932.38
2023-03-25T01:01:14.647Z,932.44
2023-03-25T01:02:15.341Z,932.46
2023-03-25T01:03:16.254Z,932.49
2023-03-25T01:04:16.893Z,932.48
2023-03-25T01:05:17.933Z,932.46
2023-03-25T01:06:18.839Z,932.42
2023-03-25T01:07:19.790Z,932.46
2023-03-25T01:08:20.486Z,932.48
2023-03-25T01:09:21.186Z,932.45
2023-03-25T01:10:21.907Z,932.42
2023-03-25T01:11:22.611Z,932.39
2023-03-25T01:12:23.086Z,932.38
2023-03-25T01:13:23.877Z,932.4
2023-03-25T01:14:24.551Z,932.43
2023-03-25T01:15:25.265Z,932.39
2023-03-25T01:16:26.198Z,932.42
2023-03-25T01:17:27.185Z,932.38
2023-03-25T01:18:28.122Z,932.38
2023-03-25T01:19:28.860Z,932.4
2023-03-25T01:20:29.571Z,932.41
2023-03-25T01:21:30.058Z,932.44
2023-03-25T01:22:30.578Z,932.42
2023-03-25T01:23:30.840Z,932.39
2023-03-25T01:24:31.556Z,932.37
2023-03-25T01:25:32.079Z,932.3
2023-03-25T01:26:32.560Z,932.26
2023-03-25T01:27:33.528Z,932.22
2023-03-25T01:28:34.275Z,932.24
2023-03-25T01:29:34.575Z,932.23
2023-03-25T01:30:35.347Z,932.2
2023-03-25T01:31:35.477Z,932.21
2023-03-25T01:32:35.846Z,932.21
2023-03-25T01:33:36.755Z,932.22
2023-03-25T01:34:37.664Z,932.26
2023-03-25T01:35:38.017Z,932.22
2023-03-25T01:36:38.969Z,932.26
2023-03-25T01:37:39.511Z,932.27
2023-03-25T01:38:40.418Z,932.31
2023-03-25T01:39:41.301Z,932.33
2023-03-25T01:40:41.997Z,932.37
2023-03-25T01:41:49.546Z,932.35
2023-03-25T01:42:42.782Z,932.3
2023-03-25T01:43:43.211Z,932.29
2023-03-25T01:44:43.879Z,932.28
2023-03-25T01:45:44.402Z,932.22
2023-03-25T01:46:44.730Z,932.3
2023-03-25T01:47:45.420Z,932.33
2023-03-25T01:48:45.606Z,932.28
2023-03-25T01:49:45.882Z,932.32
2023-03-25T01:50:46.384Z,932.23
2023-03-25T01:51:47.091Z,932.27
2023-03-25T01:52:47.757Z,932.25
2023-03-25T01:53:48.130Z,932.27
2023-03-25T01:54:48.651Z,932.12
2023-03-25T01:55:49.551Z,932.15
2023-03-25T01:56:49.994Z,932.13
2023-03-25T01:57:50.514Z,932.15
2023-03-25T01:58:51.409Z,932.13
2023-03-25T01:59:51.935Z,932.15
2023-03-25T02:00:52.505Z,932.09
2023-03-25T02:01:53.657Z,932.07
2023-03-25T02:02:53.671Z,932.01
2023-03-25T02:03:54.307Z,932.06
2023-03-25T02:04:54.966Z,932.05
2023-03-25T02:05:55.242Z,932.09
2023-03-25T02:06:55.781Z,932.07
2023-03-25T02:07:56.332Z,932.05
2023-03-25T02:08:56.472Z,932.11
2023-03-25T02:09:56.971Z,932.14
2023-03-25T02:10:58.037Z,932.18
2023-03-25T02:11:58.757Z,932.19
2023-03-25T02:12:59.654Z,932.25
2023-03-25T02:14:00.235Z,932.22
2023-03-25T02:15:00.720Z,932.22
2023-03-25T02:16:01.665Z,932.22
2023-03-25T02:17:01.847Z,932.21
2023-03-25T02:18:02.858Z,932.2
2023-03-25T02:19:03.758Z,932.18
2023-03-25T02:20:04.079Z,932.18
2023-03-25T02:21:04.998Z,932.24
2023-03-25T02:22:05.701Z,932.06
2023-03-25T02:23:06.597Z,932.11
2023-03-25T02:24:07.099Z,932.15
2023-03-25T02:25:07.388Z,932.12
2023-03-25T02:26:08.121Z,932.08
2023-03-25T02:27:08.803Z,932.12
2023-03-25T02:28:09.802Z,932.08
2023-03-25T02:29:10.576Z,932.09
2023-03-25T02:30:11.044Z,932.05
2023-03-25T02:31:12.015Z,931.9
2023-03-25T02:32:12.448Z,932
2023-03-25T02:33:13.128Z,931.92
2023-03-25T02:34:13.779Z,931.88
2023-03-25T02:35:14.501Z,931.75
2023-03-25T02:36:15.528Z,931.89
2023-03-25T02:37:16.211Z,931.9
2023-03-25T02:38:17.107Z,931.88
2023-03-25T02:39:17.391Z,931.84
2023-03-25T02:40:17.731Z,931.84
2023-03-25T02:41:18.501Z,932
2023-03-25T02:42:19.185Z,931.9
2023-03-25T02:43:19.645Z,931.99
2023-03-25T02:44:19.913Z,931.9
2023-03-25T02:45:20.603Z,931.92
2023-03-25T02:46:21.659Z,931.9
2023-03-25T02:47:21.746Z,931.92
2023-03-25T02:48:22.679Z,932.01
2023-03-25T02:49:23.641Z,931.91
2023-03-25T02:50:23.749Z,931.98
2023-03-25T02:51:24.085Z,931.93
2023-03-25T02:52:25.004Z,931.95
2023-03-25T02:53:25.280Z,931.93
2023-03-25T02:54:25.670Z,931.91
2023-03-25T02:55:25.991Z,932.07
2023-03-25T02:56:26.481Z,932.04
2023-03-25T02:57:27.285Z,932.09
2023-03-25T02:58:27.992Z,932.06
2023-03-25T02:59:28.689Z,932.17
2023-03-25T03:00:29.174Z,932.22
2023-03-25T03:01:29.944Z,932.13
2023-03-25T03:02:30.185Z,932.2
2023-03-25T03:03:30.693Z,932.03
2023-03-25T03:04:31.311Z,932.02
2023-03-25T03:05:31.399Z,931.94
2023-03-25T03:06:32.351Z,931.84
2023-03-25T03:07:32.856Z,931.91
2023-03-25T03:08:33.364Z,931.94
2023-03-25T03:09:34.285Z,932
2023-03-25T03:10:35.008Z,932.02
2023-03-25T03:11:35.904Z,932.05
2023-03-25T03:12:36.173Z,931.98
2023-03-25T03:13:36.439Z,931.9
2023-03-25T03:14:37.054Z,932
2023-03-25T03:15:37.777Z,932.02
2023-03-25T03:16:38.830Z,931.99
2023-03-25T03:17:39.166Z,931.97
2023-03-25T03:18:39.601Z,932.05
2023-03-25T03:19:40.395Z,932.06
2023-03-25T03:20:40.909Z,932.08
2023-03-25T03:21:41.825Z,932.06
2023-03-25T03:22:42.145Z,932.15
2023-03-25T03:23:42.482Z,932.16
2023-03-25T03:24:42.848Z,932.11
2023-03-25T03:25:43.751Z,932.27
2023-03-25T03:26:44.188Z,932.2
2023-03-25T03:27:44.924Z,932.22
2023-03-25T03:28:45.992Z,932.16
2023-03-25T03:29:46.806Z,932.26
2023-03-25T03:30:47.053Z,932.17
2023-03-25T03:32:05.465Z,932.15
2023-03-25T03:32:48.877Z,932.21
2023-03-25T03:33:49.502Z,932.33
2023-03-25T03:34:50.124Z,932.18
2023-03-25T03:35:50.966Z,932.19
2023-03-25T03:36:51.211Z,932.08
2023-03-25T03:37:51.685Z,932.36
2023-03-25T03:38:52.678Z,932.35
2023-03-25T03:39:53.167Z,932.35
2023-03-25T03:40:54.098Z,932.33
2023-03-25T03:41:55.060Z,932.34
2023-03-25T03:42:55.576Z,932.28
2023-03-25T03:43:56.087Z,932.13
2023-03-25T03:44:56.369Z,932.29
2023-03-25T03:45:56.935Z,932.16
2023-03-25T03:46:57.840Z,932.35
2023-03-25T03:47:58.761Z,932.1
2023-03-25T03:48:59.751Z,932.18
2023-03-25T03:50:00.725Z,932.13
2023-03-25T03:51:01.440Z,932.09
2023-03-25T03:52:02.130Z,932.13
2023-03-25T03:53:03.155Z,932.07
2023-03-25T03:54:03.886Z,932.11
2023-03-25T03:55:04.292Z,932.06
2023-03-25T03:56:04.590Z,932.04
2023-03-25T03:57:05.321Z,932.07
2023-03-25T03:58:06.116Z,932.09
2023-03-25T03:59:06.413Z,932.16
2023-03-25T04:00:07.131Z,932.18
2023-03-25T04:01:07.811Z,932.12
2023-03-25T04:02:08.201Z,932.21
2023-03-25T04:03:08.350Z,931.97
2023-03-25T04:04:09.069Z,932.12
2023-03-25T04:05:09.694Z,932.07
2023-03-25T04:06:09.992Z,931.91
2023-03-25T04:07:10.538Z,932.06
2023-03-25T04:08:11.425Z,932.07
2023-03-25T04:09:11.925Z,932.02
2023-03-25T04:10:12.610Z,932.06
2023-03-25T04:11:13.118Z,932.04
2023-03-25T04:12:13.628Z,932.01
2023-03-25T04:13:13.899Z,932.07
2023-03-25T04:14:14.820Z,932.18
2023-03-25T04:15:15.423Z,932.21
2023-03-25T04:16:16.595Z,932.21
2023-03-25T04:17:17.562Z,932.22
2023-03-25T04:18:17.844Z,932.28
2023-03-25T04:19:18.111Z,932.4
2023-03-25T04:20:18.651Z,932.31
2023-03-25T04:21:19.572Z,932.32
2023-03-25T04:22:20.037Z,932.28
2023-03-25T04:23:20.934Z,932.35
2023-03-25T04:24:21.461Z,932.33
2023-03-25T04:25:22.194Z,932.43
2023-03-25T04:26:22.692Z,932.37
2023-03-25T04:27:23.351Z,932.32
2023-03-25T04:28:24.074Z,932.38
2023-03-25T04:29:24.235Z,932.32
2023-03-25T04:30:24.716Z,932.47
2023-03-25T04:31:25.046Z,932.42
2023-03-25T04:32:25.264Z,932.36
2023-03-25T04:33:25.673Z,932.38
2023-03-25T04:34:26.383Z,932.47
2023-03-25T04:35:27.010Z,932.5
2023-03-25T04:36:27.978Z,932.39
2023-03-25T04:37:28.900Z,932.29
2023-03-25T04:38:29.867Z,932.33
2023-03-25T04:39:30.793Z,932.37
2023-03-25T04:40:31.072Z,932.27
2023-03-25T04:41:32.275Z,932.36
2023-03-25T04:42:32.255Z,932.36
2023-03-25T04:43:32.986Z,932.29
2023-03-25T04:44:33.965Z,932.24
2023-03-25T04:45:34.791Z,932.18
2023-03-25T04:46:35.595Z,932.4
2023-03-25T04:47:36.368Z,932.1
2023-03-25T04:48:36.597Z,932.16
2023-03-25T04:49:37.635Z,932.12
2023-03-25T04:50:38.615Z,932.07
2023-03-25T04:51:39.281Z,932.07
2023-03-25T04:52:40.259Z,932.05
2023-03-25T04:53:41.189Z,932.02
2023-03-25T04:54:42.097Z,932.04
2023-03-25T04:55:42.585Z,932.09
2023-03-25T04:56:43.572Z,932.05
2023-03-25T04:57:43.963Z,932.05
2023-03-25T04:58:44.892Z,932.11
2023-03-25T04:59:45.384Z,932.14
2023-03-25T05:00:45.678Z,932.16
2023-03-25T05:01:46.622Z,932.07
2023-03-25T05:02:47.042Z,932.14
2023-03-25T05:03:47.207Z,932.14
2023-03-25T05:04:48.215Z,932.1
2023-03-25T05:05:49.259Z,932.14
2023-03-25T05:06:49.918Z,932.22
2023-03-25T05:07:50.486Z,932.22
2023-03-25T05:08:50.393Z,932.21
2023-03-25T05:09:50.877Z,932.33
2023-03-25T05:10:51.581Z,932.4
2023-03-25T05:11:51.864Z,932.38
2023-03-25T05:12:52.577Z,932.39
2023-03-25T05:13:53.552Z,932.4
2023-03-25T05:14:54.471Z,932.42
2023-03-25T05:15:54.757Z,932.45
2023-03-25T05:16:55.560Z,932.42
2023-03-25T05:17:56.311Z,932.35
2023-03-25T05:18:56.652Z,932.42
2023-03-25T05:19:56.835Z,932.5
2023-03-25T05:20:57.003Z,932.36
2023-03-25T05:21:57.642Z,932.37
2023-03-25T05:22:58.679Z,932.37
2023-03-25T05:23:59.375Z,932.48
2023-03-25T05:25:00.165Z,932.54
2023-03-25T05:26:00.659Z,932.62
2023-03-25T05:27:01.349Z,932.68
2023-03-25T05:28:02.034Z,932.71
2023-03-25T05:29:03.019Z,932.76
2023-03-25T05:30:03.493Z,932.88
2023-03-25T05:31:04.196Z,932.94
2023-03-25T05:32:05.192Z,933.05
2023-03-25T05:33:06.219Z,933.23
2023-03-25T05:34:07.163Z,933.16
2023-03-25T05:35:07.738Z,933.09
2023-03-25T05:36:08.764Z,933.42
2023-03-25T05:37:09.084Z,933.35
2023-03-25T05:38:09.769Z,933.45
2023-03-25T05:39:10.265Z,933.59
2023-03-25T05:40:14.516Z,933.58
2023-03-25T05:41:11.753Z,933.44
2023-03-25T05:42:12.088Z,933.63
2023-03-25T05:43:12.961Z,933.57
2023-03-25T05:44:13.467Z,933.78
2023-03-25T05:45:14.345Z,933.64
2023-03-25T05:46:14.754Z,933.73
2023-03-25T05:47:15.520Z,933.89
2023-03-25T05:48:15.704Z,933.74
2023-03-25T05:49:16.653Z,933.74
2023-03-25T05:50:17.629Z,933.73
2023-03-25T05:51:18.608Z,933.83
2023-03-25T05:52:19.511Z,933.92
2023-03-25T05:53:20.404Z,933.82
2023-03-25T05:54:21.498Z,933.8
2023-03-25T05:55:21.976Z,933.95
2023-03-25T05:56:22.523Z,933.81
2023-03-25T05:57:23.253Z,933.86
2023-03-25T05:58:24.173Z,933.8
2023-03-25T05:59:25.085Z,933.85
2023-03-25T06:00:25.992Z,933.71
2023-03-25T06:02:26.436Z,933.7
2023-03-25T06:03:27.324Z,933.71
2023-03-25T06:04:27.494Z,933.7
2023-03-25T06:05:28.456Z,933.79
2023-03-25T06:06:29.027Z,933.7
2023-03-25T06:07:29.196Z,933.81
2023-03-25T06:08:29.738Z,933.81
2023-03-25T06:09:30.523Z,933.83
2023-03-25T06:10:31.408Z,933.87
2023-03-25T06:11:32.140Z,933.9
2023-03-25T06:12:32.632Z,933.93
2023-03-25T06:13:33.548Z,933.89
2023-03-25T06:14:34.059Z,934.03
2023-03-25T06:15:34.360Z,934.09
2023-03-25T06:16:34.467Z,934.14
2023-03-25T06:17:35.332Z,934.1
2023-03-25T06:18:36.074Z,934.13
2023-03-25T06:19:36.961Z,933.99
2023-03-25T06:20:37.914Z,934.04
2023-03-25T06:21:38.846Z,934.03
2023-03-25T06:22:39.351Z,933.95
2023-03-25T06:23:39.867Z,934.05
2023-03-25T06:24:40.963Z,933.87
2023-03-25T06:25:41.862Z,933.88
2023-03-25T06:26:42.048Z,933.91
2023-03-25T06:27:42.549Z,933.93
2023-03-25T06:28:43.149Z,933.93
2023-03-25T06:29:44.052Z,933.97
2023-03-25T06:30:44.546Z,933.91
2023-03-25T06:31:44.802Z,934.01
2023-03-25T06:32:45.371Z,934.04
2023-03-25T06:33:46.406Z,933.99
2023-03-25T06:34:47.125Z,933.85
2023-03-25T06:35:48.068Z,933.92
2023-03-25T06:36:47.981Z,933.88
2023-03-25T06:37:48.673Z,933.7
2023-03-25T06:38:49.196Z,933.68
2023-03-25T06:39:49.767Z,933.71
2023-03-25T06:40:50.466Z,933.65
2023-03-25T06:41:51.395Z,933.61
2023-03-25T06:42:51.865Z,933.58
2023-03-25T06:43:52.379Z,933.53
2023-03-25T06:44:53.257Z,933.62
2023-03-25T06:45:54.421Z,933.58
2023-03-25T06:46:55.055Z,933.59
2023-03-25T06:47:55.559Z,933.61
2023-03-25T06:48:56.145Z,933.55
2023-03-25T06:49:57.045Z,933.55
2023-03-25T06:50:57.889Z,933.55
2023-03-25T06:51:58.840Z,933.63
2023-03-25T06:52:59.537Z,933.56
2023-03-25T06:54:00.299Z,933.61
2023-03-25T06:55:01.005Z,933.75
2023-03-25T06:56:01.489Z,933.65
2023-03-25T06:57:02.259Z,933.7
2023-03-25T06:58:02.475Z,933.68
2023-03-25T06:59:03.170Z,933.68
2023-03-25T07:00:03.924Z,933.71
2023-03-25T07:01:04.692Z,933.68
2023-03-25T07:02:04.871Z,933.66
2023-03-25T07:03:05.659Z,933.63
2023-03-25T07:04:05.786Z,933.69
2023-03-25T07:05:06.261Z,933.68
2023-03-25T07:06:06.801Z,933.72
2023-03-25T07:07:07.894Z,933.72
2023-03-25T07:08:08.802Z,933.7
2023-03-25T07:09:09.704Z,933.65
2023-03-25T07:10:10.182Z,933.67
2023-03-25T07:11:10.876Z,933.76
2023-03-25T07:12:11.191Z,933.71
2023-03-25T07:13:11.685Z,933.65
2023-03-25T07:14:12.399Z,933.67
2023-03-25T07:15:13.075Z,933.61
2023-03-25T07:16:14.356Z,933.72
2023-03-25T07:17:14.576Z,933.68
2023-03-25T07:18:15.397Z,933.73
2023-03-25T07:19:16.143Z,933.82
2023-03-25T07:20:17.281Z,933.75
2023-03-25T07:21:17.555Z,933.74
2023-03-25T07:22:18.305Z,933.7
2023-03-25T07:23:18.408Z,933.72
2023-03-25T07:24:19.407Z,933.69
2023-03-25T07:25:19.903Z,933.78
2023-03-25T07:26:21.006Z,933.77
2023-03-25T07:27:21.216Z,933.71
2023-03-25T07:28:21.483Z,933.86
2023-03-25T07:29:22.375Z,933.69
2023-03-25T07:30:22.876Z,933.76
2023-03-25T07:31:23.808Z,933.7
2023-03-25T07:32:24.759Z,933.79
2023-03-25T07:33:24.889Z,933.65
2023-03-25T07:34:25.790Z,933.77
2023-03-25T07:35:26.688Z,933.76
2023-03-25T07:36:26.936Z,933.78
2023-03-25T07:37:28.000Z,933.73
2023-03-25T07:38:28.561Z,933.83
2023-03-25T07:39:29.257Z,933.68
2023-03-25T07:40:30.024Z,933.75
2023-03-25T07:41:30.446Z,933.83
2023-03-25T07:42:31.146Z,933.94
2023-03-25T07:43:31.847Z,933.82
2023-03-25T07:44:32.866Z,933.74
2023-03-25T07:45:43.912Z,933.73
2023-03-25T07:46:34.691Z,933.75
2023-03-25T07:47:34.778Z,933.7
2023-03-25T07:48:35.149Z,933.7
2023-03-25T07:49:36.070Z,933.69
2023-03-25T07:50:36.993Z,933.67
2023-03-25T07:51:37.954Z,933.82
2023-03-25T07:52:38.886Z,933.8
2023-03-25T07:53:39.032Z,933.6
2023-03-25T07:54:39.547Z,933.77
2023-03-25T07:55:39.849Z,933.85
2023-03-25T07:56:40.487Z,933.72
2023-03-25T07:57:41.310Z,933.75
2023-03-25T07:58:42.015Z,933.78
2023-03-25T07:59:42.806Z,933.8
2023-03-25T08:00:43.114Z,933.84
2023-03-25T08:01:43.483Z,933.87
2023-03-25T08:02:44.037Z,933.84
2023-03-25T08:03:44.922Z,933.7
2023-03-25T08:04:45.682Z,933.81
2023-03-25T08:05:46.020Z,933.81
2023-03-25T08:06:46.317Z,933.84
2023-03-25T08:07:46.978Z,933.79
2023-03-25T08:08:47.630Z,933.76
2023-03-25T08:09:48.139Z,933.78
2023-03-25T08:10:49.042Z,933.88
2023-03-25T08:11:49.190Z,933.94
2023-03-25T08:12:49.664Z,933.86
2023-03-25T08:13:50.193Z,934.08
2023-03-25T08:14:51.133Z,934.07
2023-03-25T08:15:51.384Z,934.06
2023-03-25T08:16:51.656Z,934.01
2023-03-25T08:17:52.618Z,934
2023-03-25T08:18:52.677Z,933.96
2023-03-25T08:19:53.443Z,934.01
2023-03-25T08:20:53.754Z,933.99
2023-03-25T08:21:54.337Z,933.94
2023-03-25T08:22:55.114Z,933.9
2023-03-25T08:23:55.809Z,933.88
2023-03-25T08:24:56.710Z,933.92
2023-03-25T08:25:57.385Z,933.91
2023-03-25T08:26:58.154Z,933.88
2023-03-25T08:27:58.368Z,933.91
2023-03-25T08:28:58.648Z,933.94
2023-03-25T08:29:59.026Z,933.98
2023-03-25T08:30:59.139Z,933.93
2023-03-25T08:32:00.101Z,933.98
2023-03-25T08:33:00.947Z,934
2023-03-25T08:34:01.431Z,933.96
2023-03-25T08:35:01.583Z,934.01
2023-03-25T08:36:01.962Z,933.97
2023-03-25T08:37:02.031Z,933.97
2023-03-25T08:38:03.108Z,933.93
2023-03-25T08:39:04.010Z,933.89
2023-03-25T08:40:04.293Z,933.9
2023-03-25T08:41:04.833Z,933.94
2023-03-25T08:42:05.534Z,933.89
2023-03-25T08:43:06.247Z,933.84
2023-03-25T08:44:06.559Z,933.83
2023-03-25T08:45:07.171Z,933.82
2023-03-25T08:46:07.705Z,933.82
2023-03-25T08:47:08.442Z,933.83
2023-03-25T08:48:08.757Z,933.75
2023-03-25T08:49:08.851Z,933.77
2023-03-25T08:50:09.393Z,933.8
2023-03-25T08:51:10.326Z,933.86
2023-03-25T08:52:11.266Z,933.83
2023-03-25T08:53:12.007Z,933.83
2023-03-25T08:54:12.589Z,933.83
2023-03-25T08:55:13.273Z,933.84
2023-03-25T08:56:13.990Z,933.82
2023-03-25T08:57:14.548Z,933.81
2023-03-25T08:58:14.765Z,933.83
2023-03-25T08:59:15.694Z,933.84
2023-03-25T09:00:16.436Z,933.76
2023-03-25T09:01:17.011Z,933.77
2023-03-25T09:02:18.087Z,933.75
2023-03-25T09:03:18.346Z,933.75
2023-03-25T09:04:18.469Z,933.66
2023-03-25T09:05:19.459Z,933.72
2023-03-25T09:06:19.824Z,933.72
2023-03-25T09:07:20.041Z,933.72
2023-03-25T09:08:20.552Z,933.74
2023-03-25T09:09:21.298Z,933.83
2023-03-25T09:10:22.234Z,933.71
2023-03-25T09:11:30.420Z,933.66
2023-03-25T09:12:23.687Z,933.71
2023-03-25T09:13:23.963Z,933.73
2023-03-25T09:14:24.467Z,933.76
2023-03-25T09:15:25.409Z,933.67
2023-03-25T09:16:25.809Z,933.69
2023-03-25T09:17:26.697Z,933.68
2023-03-25T09:18:27.531Z,933.72
2023-03-25T09:19:28.321Z,933.81
2023-03-25T09:20:29.048Z,933.78
2023-03-25T09:21:29.349Z,933.84
2023-03-25T09:22:30.090Z,933.76
2023-03-25T09:23:30.264Z,933.67
2023-03-25T09:24:30.877Z,933.71
2023-03-25T09:25:30.975Z,933.72
2023-03-25T09:26:31.279Z,933.76
2023-03-25T09:27:31.984Z,933.78
2023-03-25T09:28:32.214Z,933.76
2023-03-25T09:29:33.120Z,933.71
2023-03-25T09:30:34.069Z,933.65
2023-03-25T09:31:35.082Z,933.68
2023-03-25T09:32:35.807Z,933.71
2023-03-25T09:33:36.733Z,933.68
2023-03-25T09:34:37.655Z,933.66
2023-03-25T09:35:38.037Z,933.66
2023-03-25T09:36:38.149Z,933.67
2023-03-25T09:37:38.302Z,933.68
2023-03-25T09:38:38.811Z,933.68
2023-03-25T09:39:39.592Z,933.65
2023-03-25T09:40:40.103Z,933.69
2023-03-25T09:41:40.239Z,933.71
2023-03-25T09:42:41.143Z,933.69
2023-03-25T09:43:41.639Z,933.7
2023-03-25T09:44:42.341Z,933.59
2023-03-25T09:45:42.718Z,933.59
2023-03-25T09:46:43.554Z,933.53
2023-03-25T09:47:44.631Z,933.59
2023-03-25T09:48:45.362Z,933.61
2023-03-25T09:49:46.153Z,933.62
2023-03-25T09:50:46.870Z,933.62
2023-03-25T09:51:47.712Z,933.56
2023-03-25T09:52:48.466Z,933.6
2023-03-25T09:53:48.645Z,933.63
2023-03-25T09:54:49.558Z,933.6
2023-03-25T09:55:50.582Z,933.59
2023-03-25T09:56:51.444Z,933.49
2023-03-25T09:57:52.446Z,933.5
2023-03-25T09:58:53.283Z,933.57
2023-03-25T09:59:53.989Z,933.6
2023-03-25T10:00:54.781Z,933.51
2023-03-25T10:01:55.005Z,933.6
2023-03-25T10:02:55.759Z,933.48
2023-03-25T10:03:56.706Z,933.45
2023-03-25T10:04:57.014Z,933.37
2023-03-25T10:05:57.792Z,933.38
2023-03-25T10:06:58.483Z,933.41
2023-03-25T10:07:59.426Z,933.41
2023-03-25T10:09:00.105Z,933.46
2023-03-25T10:10:00.807Z,933.42
2023-03-25T10:11:01.359Z,933.41
2023-03-25T10:12:01.878Z,933.44
2023-03-25T10:13:02.182Z,933.54
2023-03-25T10:14:02.636Z,933.55
2023-03-25T10:15:03.144Z,933.5
2023-03-25T10:16:03.893Z,933.47
2023-03-25T10:17:04.575Z,933.44
2023-03-25T10:18:05.339Z,933.46
2023-03-25T10:19:05.972Z,933.46
2023-03-25T10:20:07.035Z,933.43
2023-03-25T10:21:07.621Z,933.43
2023-03-25T10:22:08.314Z,933.35
2023-03-25T10:23:08.508Z,933.36
2023-03-25T10:24:09.264Z,933.31
2023-03-25T10:25:09.994Z,933.31
2023-03-25T10:26:10.708Z,933.32
2023-03-25T10:27:11.229Z,933.36
2023-03-25T10:28:11.935Z,933.4
2023-03-25T10:29:12.514Z,933.41
2023-03-25T10:30:13.014Z,933.4
2023-03-25T10:31:13.726Z,933.36
2023-03-25T10:32:14.786Z,933.3
2023-03-25T10:33:14.967Z,933.33
2023-03-25T10:34:15.761Z,933.38
2023-03-25T10:35:16.251Z,933.48
2023-03-25T10:36:17.001Z,933.52
2023-03-25T10:37:17.907Z,933.51
2023-03-25T10:38:18.875Z,933.55
2023-03-25T10:39:19.917Z,933.38
2023-03-25T10:40:21.514Z,933.45
2023-03-25T10:41:20.656Z,933.4
2023-03-25T10:42:21.135Z,933.48
2023-03-25T10:43:21.843Z,933.43
2023-03-25T10:44:22.755Z,933.45
2023-03-25T10:45:23.666Z,933.49
2023-03-25T10:46:24.565Z,933.45
2023-03-25T10:47:24.967Z,933.42
2023-03-25T10:48:25.470Z,933.39
2023-03-25T10:49:26.078Z,933.35
2023-03-25T10:50:26.783Z,933.35
2023-03-25T10:51:27.509Z,933.24
2023-03-25T10:52:28.037Z,933.36
2023-03-25T10:53:28.772Z,933.37
2023-03-25T10:54:29.734Z,933.36
2023-03-25T10:55:30.651Z,933.27
2023-03-25T10:56:31.182Z,933.33
2023-03-25T10:57:31.291Z,933.26
2023-03-25T10:58:31.593Z,933.33
2023-03-25T10:59:31.820Z,933.34
2023-03-25T11:00:32.529Z,933.4
2023-03-25T11:01:32.747Z,933.29
2023-03-25T11:02:33.632Z,933.28
2023-03-25T11:03:34.015Z,933.32
2023-03-25T11:04:34.732Z,933.25
2023-03-25T11:05:35.641Z,933.27
2023-03-25T11:06:36.435Z,933.22
2023-03-25T11:07:37.177Z,933.26
2023-03-25T11:08:38.248Z,933.23
2023-03-25T11:09:39.018Z,933.15
2023-03-25T11:10:39.743Z,933.06
2023-03-25T11:11:40.302Z,933.07
2023-03-25T11:12:43.400Z,933.08
2023-03-25T11:13:41.925Z,933.09
2023-03-25T11:14:42.591Z,933.09
2023-03-25T11:15:43.305Z,933.07
2023-03-25T11:16:43.841Z,933.06
2023-03-25T11:17:44.700Z,932.94
2023-03-25T11:18:45.714Z,932.96
2023-03-25T11:19:46.341Z,932.98
2023-03-25T11:20:46.857Z,933.03
2023-03-25T11:21:47.630Z,932.96
2023-03-25T11:22:48.348Z,933
2023-03-25T11:23:48.932Z,932.94
2023-03-25T11:24:49.719Z,932.92
2023-03-25T11:25:50.536Z,932.97
2023-03-25T11:26:50.398Z,933.04
2023-03-25T11:27:51.472Z,932.99
2023-03-25T11:28:52.241Z,932.96
2023-03-25T11:29:52.750Z,932.95
2023-03-25T11:30:53.725Z,932.87
2023-03-25T11:31:54.251Z,932.84
2023-03-25T11:32:54.931Z,932.87
2023-03-25T11:33:55.529Z,932.98
2023-03-25T11:34:55.888Z,932.86
2023-03-25T11:35:56.440Z,933.03
2023-03-25T11:36:57.403Z,932.91
2023-03-25T11:37:58.307Z,932.93
2023-03-25T11:38:58.481Z,932.88
2023-03-25T11:39:59.072Z,932.93
2023-03-25T11:40:59.735Z,932.97
2023-03-25T11:42:00.625Z,932.81
2023-03-25T11:43:01.159Z,933.03
2023-03-25T11:44:02.048Z,932.93
2023-03-25T11:45:02.757Z,932.9
2023-03-25T11:46:03.506Z,932.92
2023-03-25T11:47:04.467Z,932.93
2023-03-25T11:48:05.185Z,932.92
2023-03-25T11:49:06.116Z,932.97
2023-03-25T11:50:06.602Z,932.98
2023-03-25T11:51:07.549Z,933.08
2023-03-25T11:52:08.271Z,933.01
2023-03-25T11:53:09.191Z,932.95
2023-03-25T11:54:09.390Z,932.88
2023-03-25T11:55:10.038Z,933.07
2023-03-25T11:56:10.941Z,933.01
2023-03-25T11:57:12.069Z,933.01
2023-03-25T11:58:12.645Z,933.09
2023-03-25T11:59:13.230Z,933.11
2023-03-25T12:00:14.089Z,933.05
2023-03-25T12:01:14.997Z,933.03
2023-03-25T12:02:16.092Z,933.13
2023-03-25T12:03:17.059Z,932.93
2023-03-25T12:04:16.356Z,932.97
2023-03-25T12:05:16.879Z,933.06
2023-03-25T12:06:17.463Z,933
2023-03-25T12:07:18.138Z,932.96
2023-03-25T12:08:18.861Z,932.91
2023-03-25T12:09:19.816Z,932.85
2023-03-25T12:10:20.398Z,932.82
2023-03-25T12:11:21.323Z,932.91
2023-03-25T12:12:21.974Z,932.89
2023-03-25T12:13:22.502Z,932.84
2023-03-25T12:14:22.986Z,932.87
2023-03-25T12:15:23.504Z,932.78
2023-03-25T12:16:24.015Z,932.77
2023-03-25T12:17:24.968Z,932.67
2023-03-25T12:18:25.182Z,932.7
2023-03-25T12:19:25.897Z,932.77
2023-03-25T12:20:26.899Z,932.72
2023-03-25T12:21:27.489Z,932.77
2023-03-25T12:22:28.237Z,932.71
2023-03-25T12:23:29.169Z,932.67
2023-03-25T12:24:29.796Z,932.67
2023-03-25T12:25:30.344Z,932.68
2023-03-25T12:26:31.047Z,932.65
2023-03-25T12:27:31.567Z,932.69
2023-03-25T12:28:32.500Z,932.48
2023-03-25T12:29:33.074Z,932.55
2023-03-25T12:30:33.295Z,932.52
2023-03-25T12:31:34.092Z,932.54
2023-03-25T12:32:35.004Z,932.52
2023-03-25T12:33:35.789Z,932.52
2023-03-25T12:34:37.705Z,932.54
2023-03-25T12:35:36.328Z,932.56
2023-03-25T12:36:37.383Z,932.59
2023-03-25T12:37:38.172Z,932.56
2023-03-25T12:38:38.863Z,932.55
2023-03-25T12:39:42.552Z,932.48
2023-03-25T12:40:39.776Z,932.47